Time;durP1;ratioP1;P1;durP2;ratioP2;P2;SDS_P1;SDS_P2;PMS_P1;PMS_P2;Temp;Humidity;BMP_temperature;BMP_pressure;BME280_temperature;BME280_humidity;BME280_pressure;Samples;Min_cycle;Max_cycle;Signal;HPM_P1;HPM_P2
2024/04/17 00:00:15;;;;;;;3.13;1.60;;;9.50;99.90;;;;;;5414515;26;20647;-62
2024/04/17 00:02:41;;;;;;;1.30;1.20;;;9.60;99.90;;;;;;5414591;26;20349;-61
2024/04/17 00:05:09;;;;;;;1.33;1.10;;;9.60;99.90;;;;;;5414830;26;20784;-61
2024/04/17 00:07:35;;;;;;;1.93;1.13;;;9.50;99.90;;;;;;5414027;26;20227;-62
2024/04/17 00:10:03;;;;;;;1.33;1.07;;;9.40;99.90;;;;;;5413937;26;20234;-62
2024/04/17 00:12:32;;;;;;;1.70;1.10;;;9.40;99.90;;;;;;5413814;26;20616;-62
2024/04/17 00:15:00;;;;;;;1.13;0.90;;;9.40;99.90;;;;;;5414162;26;20235;-62
2024/04/17 00:17:26;;;;;;;1.23;0.90;;;9.40;99.90;;;;;;5417374;26;20230;-62
2024/04/17 00:19:54;;;;;;;1.03;0.90;;;9.50;99.90;;;;;;5462888;21;20638;-63
2024/04/17 00:22:20;;;;;;;1.57;0.80;;;9.50;99.90;;;;;;5443291;26;20230;-62
2024/04/17 00:24:48;;;;;;;1.70;1.17;;;9.50;99.90;;;;;;5443426;26;20234;-62
2024/04/17 00:27:14;;;;;;;1.17;0.77;;;9.60;99.90;;;;;;5443252;26;20272;-63
2024/04/17 00:29:45;;;;;;;0.73;0.70;;;9.60;99.90;;;;;;5427747;26;20235;-63
2024/04/17 00:32:11;;;;;;;0.97;0.80;;;9.60;99.90;;;;;;5428399;26;20227;-63
2024/04/17 00:34:39;;;;;;;0.47;0.47;;;9.60;99.90;;;;;;5425703;26;20334;-63
2024/04/17 00:37:05;;;;;;;0.60;0.60;;;9.70;99.90;;;;;;5422046;26;20333;-63
2024/04/17 00:39:33;;;;;;;0.70;0.60;;;9.60;99.90;;;;;;5423252;26;20273;-63
2024/04/17 00:41:59;;;;;;;0.40;0.40;;;9.60;99.90;;;;;;5428407;26;20276;-63
2024/04/17 00:44:27;;;;;;;1.17;0.70;;;9.60;99.90;;;;;;5428089;26;20230;-63
2024/04/17 00:46:56;;;;;;;1.07;0.70;;;9.60;99.90;;;;;;5422032;26;20227;-62
2024/04/17 00:49:24;;;;;;;1.33;0.63;;;9.60;99.90;;;;;;5421696;26;20273;-63
2024/04/17 00:51:51;;;;;;;0.60;0.60;;;9.60;99.90;;;;;;5426877;26;20348;-63
2024/04/17 00:54:19;;;;;;;0.60;0.60;;;9.40;99.90;;;;;;5427974;26;20234;-63
2024/04/17 00:56:46;;;;;;;2.00;0.50;;;9.20;99.90;;;;;;5423491;26;20273;-63
2024/04/17 00:59:14;;;;;;;0.20;0.20;;;9.20;99.90;;;;;;5421726;26;20347;-63
2024/04/17 01:01:40;;;;;;;1.13;0.47;;;9.10;99.90;;;;;;5424509;26;20273;-63
2024/04/17 01:04:11;;;;;;;0.57;0.43;;;8.90;99.90;;;;;;5427899;26;20230;-63
2024/04/17 01:06:37;;;;;;;1.63;0.50;;;8.70;99.90;;;;;;5425395;26;20230;-63
2024/04/17 01:09:05;;;;;;;0.30;0.30;;;8.50;99.90;;;;;;5421444;26;20747;-62
2024/04/17 01:11:37;;;;;;;0.83;0.60;;;8.20;99.90;;;;;;5422123;26;20794;-63
2024/04/17 01:14:05;;;;;;;0.63;0.40;;;8.00;99.90;;;;;;5427928;26;20273;-63
2024/04/17 01:16:32;;;;;;;0.63;0.40;;;7.90;99.90;;;;;;5426786;26;20265;-62
2024/04/17 01:19:02;;;;;;;2.80;0.70;;;7.80;99.90;;;;;;5421437;26;20243;-62
2024/04/17 01:21:30;;;;;;;1.67;0.40;;;7.80;99.90;;;;;;5420850;26;20622;-62
2024/04/17 01:24:01;;;;;;;0.60;0.53;;;7.60;99.90;;;;;;5421575;26;20234;-63
2024/04/17 01:26:27;;;;;;;2.90;0.60;;;7.40;99.90;;;;;;5420865;26;20576;-62
2024/04/17 01:28:55;;;;;;;0.97;0.50;;;7.40;99.90;;;;;;5427286;26;20238;-63
2024/04/17 01:31:21;;;;;;;1.23;0.43;;;7.30;99.90;;;;;;5427179;26;20277;-64
2024/04/17 01:33:49;;;;;;;1.03;0.70;;;7.40;99.90;;;;;;5422594;26;20289;-63
2024/04/17 01:36:15;;;;;;;1.00;0.40;;;7.40;99.90;;;;;;5421279;26;20232;-63
2024/04/17 01:38:44;;;;;;;1.20;0.57;;;7.30;99.90;;;;;;5424391;26;20624;-63
2024/04/17 01:41:13;;;;;;;0.50;0.50;;;7.30;99.90;;;;;;5427062;26;20242;-62
2024/04/17 01:43:42;;;;;;;0.47;0.47;;;7.30;99.90;;;;;;5424577;26;20268;-63
2024/04/17 01:46:08;;;;;;;0.97;0.70;;;7.40;99.90;;;;;;5421296;26;20265;-62
2024/04/17 01:48:36;;;;;;;0.73;0.50;;;7.30;99.90;;;;;;5422116;26;20275;-61
2024/04/17 01:51:02;;;;;;;1.33;0.57;;;7.40;99.90;;;;;;5426778;26;20276;-63
2024/04/17 01:53:30;;;;;;;0.40;0.40;;;7.60;99.90;;;;;;5427236;26;20234;-62
2024/04/17 01:55:56;;;;;;;1.50;0.80;;;7.70;99.90;;;;;;5421056;26;20649;-63
2024/04/17 01:58:29;;;;;;;0.77;0.60;;;7.80;99.90;;;;;;5421359;26;20281;-62
2024/04/17 02:00:55;;;;;;;0.47;0.47;;;7.90;99.90;;;;;;5420763;26;20278;-62
2024/04/17 02:03:23;;;;;;;0.70;0.70;;;7.90;99.90;;;;;;5421173;26;20235;-62
2024/04/17 02:05:49;;;;;;;0.53;0.50;;;7.90;99.90;;;;;;5425572;26;20265;-63
2024/04/17 02:08:17;;;;;;;0.77;0.60;;;7.90;99.90;;;;;;5426965;26;20590;-63
2024/04/17 02:10:43;;;;;;;2.93;2.00;;;7.90;99.90;;;;;;5423020;26;20562;-63
2024/04/17 02:13:11;;;;;;;0.87;0.80;;;7.90;99.90;;;;;;5420799;26;20284;-63
2024/04/17 02:15:40;;;;;;;0.80;0.80;;;7.90;99.90;;;;;;5422613;26;20602;-63
2024/04/17 02:18:09;;;;;;;0.70;0.60;;;7.90;99.90;;;;;;5427002;26;20272;-63
2024/04/17 02:20:34;;;;;;;0.93;0.77;;;7.80;99.90;;;;;;5425873;26;20234;-62
2024/04/17 02:23:03;;;;;;;0.70;0.67;;;7.80;99.90;;;;;;5421327;26;20286;-62
2024/04/17 02:25:28;;;;;;;1.87;0.90;;;7.70;99.90;;;;;;5422000;26;20724;-62
2024/04/17 02:27:57;;;;;;;0.60;0.60;;;7.60;99.90;;;;;;5426733;26;20281;-63
2024/04/17 02:30:22;;;;;;;0.90;0.90;;;7.70;99.90;;;;;;5426360;26;20229;-63
2024/04/17 02:32:53;;;;;;;1.07;0.83;;;7.70;99.90;;;;;;5422013;26;20777;-62
2024/04/17 02:35:19;;;;;;;0.70;0.70;;;7.80;99.90;;;;;;5420467;26;20713;-63
2024/04/17 02:37:47;;;;;;;1.07;0.90;;;7.90;99.90;;;;;;5423408;26;20274;-62
2024/04/17 02:40:13;;;;;;;1.23;1.13;;;8.00;99.90;;;;;;5425466;26;20265;-62
2024/04/17 02:42:42;;;;;;;1.13;1.00;;;8.00;99.90;;;;;;5424026;26;20234;-63
2024/04/17 02:45:07;;;;;;;1.73;0.80;;;7.90;99.90;;;;;;5420264;26;20227;-63
2024/04/17 02:47:36;;;;;;;1.13;1.03;;;7.80;99.90;;;;;;5421013;26;20768;-63
2024/04/17 02:50:05;;;;;;;1.20;1.10;;;7.60;99.90;;;;;;5425875;26;20235;-62
2024/04/17 02:52:33;;;;;;;1.60;1.07;;;7.40;99.90;;;;;;5426563;26;20238;-63
2024/04/17 02:55:01;;;;;;;1.50;1.40;;;7.40;99.90;;;;;;5420785;26;20709;-62
2024/04/17 02:57:29;;;;;;;1.57;1.40;;;7.40;99.90;;;;;;5420997;26;20287;-62
2024/04/17 02:59:55;;;;;;;1.97;1.77;;;7.40;99.90;;;;;;5425983;26;20284;-63
2024/04/17 03:02:23;;;;;;;2.20;1.73;;;7.30;99.90;;;;;;5426673;26;20234;-63
2024/04/17 03:04:50;;;;;;;1.67;1.57;;;7.40;99.90;;;;;;5421834;26;20392;-62
2024/04/17 03:07:20;;;;;;;86.80;73.83;;;7.50;99.90;;;;;;5419828;26;20231;-62
2024/04/17 03:09:47;;;;;;;2.50;2.30;;;7.60;99.90;;;;;;5422890;26;20767;-63
2024/04/17 03:12:15;;;;;;;2.50;2.30;;;7.70;99.90;;;;;;5426255;26;20298;-63
2024/04/17 03:14:41;;;;;;;2.53;2.33;;;7.60;99.90;;;;;;5423777;26;20306;-62
2024/04/17 03:17:09;;;;;;;3.23;2.80;;;7.60;99.90;;;;;;5419808;26;20718;-63
2024/04/17 03:19:35;;;;;;;2.97;2.77;;;7.80;99.90;;;;;;5420128;26;20338;-63
2024/04/17 03:22:04;;;;;;;4.00;3.30;;;7.90;99.90;;;;;;5425801;26;20562;-62
2024/04/17 03:24:32;;;;;;;3.40;3.10;;;8.00;99.90;;;;;;5425655;26;20230;-62
2024/04/17 03:27:00;;;;;;;10.13;9.13;;;8.00;99.90;;;;;;5419666;26;20247;-62
2024/04/17 03:29:29;;;;;;;4.70;4.30;;;8.10;99.90;;;;;;5419534;26;20285;-62
2024/04/17 03:31:57;;;;;;;3.50;3.20;;;8.20;99.90;;;;;;5424471;26;20334;-62
2024/04/17 03:34:23;;;;;;;2.73;2.53;;;8.30;99.90;;;;;;5425491;26;20260;-61
2024/04/17 03:36:51;;;;;;;3.13;2.30;;;8.30;99.90;;;;;;5421106;26;20234;-61
2024/04/17 03:39:19;;;;;;;3.00;2.50;;;8.30;99.90;;;;;;5419188;26;20286;-62
2024/04/17 03:41:48;;;;;;;2.50;2.30;;;8.30;99.90;;;;;;5422132;26;20334;-61
2024/04/17 03:44:16;;;;;;;3.10;2.80;;;8.40;99.90;;;;;;5425447;26;20234;-61
2024/04/17 03:46:45;;;;;;;2.80;2.40;;;8.30;99.90;;;;;;5422939;26;20272;-62
2024/04/17 03:49:11;;;;;;;3.10;2.80;;;8.30;99.90;;;;;;5418935;26;20311;-62
2024/04/17 03:51:40;;;;;;;2.40;2.20;;;8.30;99.90;;;;;;5423350;26;20335;-61
2024/04/17 03:54:05;;;;;;;3.10;2.80;;;8.20;99.90;;;;;;5428962;26;20704;-62
2024/04/17 03:56:34;;;;;;;3.50;2.90;;;8.20;99.90;;;;;;5428935;26;20284;-62
2024/04/17 03:59:02;;;;;;;4.00;2.77;;;8.20;99.90;;;;;;5428899;26;20292;-63
2024/04/17 04:01:34;;;;;;;3.00;2.70;;;8.20;99.90;;;;;;5428721;26;20238;-62
2024/04/17 04:04:00;;;;;;;3.30;3.00;;;8.20;99.90;;;;;;5422565;26;20231;-62
2024/04/17 04:06:28;;;;;;;3.37;3.07;;;8.30;99.90;;;;;;5422972;26;20269;-62
2024/04/17 04:08:54;;;;;;;3.20;2.90;;;8.20;99.90;;;;;;5427853;26;20234;-62
2024/04/17 04:11:23;;;;;;;3.33;3.00;;;8.20;99.90;;;;;;5428199;26;20281;-62
2024/04/17 04:13:49;;;;;;;3.63;2.97;;;8.20;99.90;;;;;;5424839;26;20656;-62
2024/04/17 04:16:20;;;;;;;3.47;3.17;;;8.30;99.90;;;;;;5422414;26;20235;-62
2024/04/17 04:18:46;;;;;;;4.03;3.07;;;8.20;99.90;;;;;;5425399;26;20235;-63
2024/04/17 04:21:14;;;;;;;4.37;3.30;;;8.20;99.90;;;;;;5428171;26;20823;-62
2024/04/17 04:23:40;;;;;;;3.40;3.10;;;8.20;99.90;;;;;;5426730;26;20230;-62
2024/04/17 04:26:08;;;;;;;3.53;3.23;;;8.20;99.90;;;;;;5422393;26;20270;-62
2024/04/17 04:28:34;;;;;;;3.50;3.20;;;8.30;99.90;;;;;;5422234;26;20720;-63
2024/04/17 04:31:02;;;;;;;3.50;3.20;;;8.30;99.90;;;;;;5427993;26;20237;-60
2024/04/17 04:33:31;;;;;;;3.77;3.37;;;8.40;99.90;;;;;;5428536;26;20261;-62
2024/04/17 04:35:59;;;;;;;4.10;3.50;;;8.50;99.90;;;;;;5422749;26;20247;-62
2024/04/17 04:38:25;;;;;;;4.83;3.83;;;8.50;99.90;;;;;;5422025;26;20235;-61
2024/04/17 04:40:53;;;;;;;5.10;3.47;;;8.60;99.90;;;;;;5426067;26;20234;-62
2024/04/17 04:43:19;;;;;;;4.40;3.80;;;8.60;99.90;;;;;;5428152;26;20277;-62
2024/04/17 04:45:47;;;;;;;4.20;3.83;;;8.70;99.90;;;;;;5425616;26;20674;-62
2024/04/17 04:48:13;;;;;;;4.73;3.90;;;8.80;99.90;;;;;;5422044;26;20231;-62
2024/04/17 04:50:45;;;;;;;4.27;3.90;;;8.80;99.90;;;;;;5422379;26;20285;-61
2024/04/17 04:53:11;;;;;;;4.33;3.93;;;8.80;99.90;;;;;;5428035;26;20257;-61
2024/04/17 04:55:39;;;;;;;4.63;4.23;;;8.90;99.90;;;;;;5427020;26;20234;-62
2024/04/17 04:58:05;;;;;;;4.50;4.10;;;9.00;99.90;;;;;;5421495;26;20235;-61
2024/04/17 05:00:33;;;;;;;5.00;4.60;;;9.00;99.90;;;;;;5421403;26;20304;-62
2024/04/17 05:02:59;;;;;;;4.87;4.47;;;9.10;99.90;;;;;;5426675;26;20594;-62
2024/04/17 05:05:27;;;;;;;5.97;5.03;;;9.10;99.90;;;;;;5427798;26;20234;-62
2024/04/17 05:07:56;;;;;;;5.77;5.03;;;9.10;99.90;;;;;;5422762;26;20246;-62
2024/04/17 05:10:24;;;;;;;7.10;5.87;;;9.10;99.90;;;;;;5420938;26;20299;-62
2024/04/17 05:12:50;;;;;;;5.00;4.50;;;9.10;99.90;;;;;;5425200;26;20273;-62
2024/04/17 05:15:18;;;;;;;5.20;4.70;;;9.20;99.90;;;;;;5427866;26;20238;-62
2024/04/17 05:17:44;;;;;;;6.17;5.57;;;9.30;99.90;;;;;;5426437;26;20234;-64
2024/04/17 05:20:12;;;;;;;5.27;4.77;;;9.40;99.90;;;;;;5421885;26;20281;-62
2024/04/17 05:22:38;;;;;;;4.63;4.23;;;9.40;99.90;;;;;;5422582;26;20231;-61
2024/04/17 05:25:09;;;;;;;6.23;5.63;;;9.50;99.90;;;;;;5427889;26;20816;-61
2024/04/17 05:27:35;;;;;;;9.77;8.87;;;9.60;99.90;;;;;;5428028;26;20269;-62
2024/04/17 05:30:03;;;;;;;5.90;5.37;;;9.70;99.90;;;;;;5421085;26;20238;-62
2024/04/17 05:32:29;;;;;;;4.77;4.37;;;9.70;99.90;;;;;;5421147;26;20581;-62
2024/04/17 05:34:57;;;;;;;5.17;4.20;;;9.70;99.90;;;;;;5426200;26;20278;-62
2024/04/17 05:37:23;;;;;;;4.80;4.30;;;9.70;99.90;;;;;;5427223;26;20276;-62
2024/04/17 05:39:51;;;;;;;4.87;4.47;;;9.70;99.90;;;;;;5423444;26;20238;-62
2024/04/17 05:42:20;;;;;;;4.57;4.17;;;9.70;99.90;;;;;;5421218;26;20274;-62
2024/04/17 05:44:48;;;;;;;5.57;4.40;;;9.70;99.90;;;;;;5423453;26;20339;-62
2024/04/17 05:47:14;;;;;;;4.93;4.43;;;9.70;99.90;;;;;;5427294;26;20268;-62
2024/04/17 05:49:42;;;;;;;4.63;4.23;;;9.70;99.90;;;;;;5425529;26;20740;-61
2024/04/17 05:52:09;;;;;;;5.37;4.87;;;9.70;99.90;;;;;;5421094;26;20231;-61
2024/04/17 05:54:38;;;;;;;6.70;6.00;;;9.70;99.90;;;;;;5421211;26;20265;-63
2024/04/17 05:57:03;;;;;;;11.10;5.37;;;9.80;99.90;;;;;;5421052;26;20563;-62
2024/04/17 05:59:35;;;;;;;6.57;5.57;;;9.80;99.90;;;;;;5420897;26;20294;-62
2024/04/17 06:02:01;;;;;;;5.67;5.10;;;9.80;99.90;;;;;;5427124;26;20269;-62
2024/04/17 06:04:29;;;;;;;10.27;7.17;;;9.80;99.90;;;;;;5426854;26;20230;-58
2024/04/17 06:06:55;;;;;;;5.30;4.80;;;9.80;99.90;;;;;;5422242;26;20668;-62
2024/04/17 06:09:25;;;;;;;5.37;4.83;;;9.90;99.90;;;;;;5427639;26;20751;-65
2024/04/17 06:11:51;;;;;;;5.60;5.10;;;9.90;99.90;;;;;;5411523;26;20285;-62
2024/04/17 06:14:21;;;;;;;5.97;5.40;;;9.80;99.90;;;;;;5426265;26;20242;-60
2024/04/17 06:16:50;;;;;;;5.87;5.27;;;9.70;99.90;;;;;;5423874;26;20234;-64
2024/04/17 06:19:18;;;;;;;5.67;5.10;;;9.70;99.90;;;;;;5419426;26;20298;-64
2024/04/17 06:21:44;;;;;;;5.83;5.23;;;9.80;99.90;;;;;;5421801;26;20567;-65
2024/04/17 06:24:12;;;;;;;6.33;5.43;;;9.80;99.90;;;;;;5426203;26;20731;-64
2024/04/17 06:26:38;;;;;;;5.70;5.20;;;9.80;99.90;;;;;;5426405;26;20229;-63
2024/04/17 06:29:06;;;;;;;6.10;4.50;;;9.90;99.90;;;;;;5420325;26;20307;-63
2024/04/17 06:31:32;;;;;;;5.37;4.80;;;10.00;99.90;;;;;;5420069;26;20244;-63
2024/04/17 06:34:03;;;;;;;6.90;4.87;;;10.00;99.90;;;;;;5425316;26;20570;-63
2024/04/17 06:36:29;;;;;;;7.93;5.10;;;10.10;99.90;;;;;;5426165;26;20234;-65
2024/04/17 06:38:58;;;;;;;5.37;4.73;;;10.10;99.90;;;;;;5422142;26;20337;-65
2024/04/17 06:41:23;;;;;;;5.57;4.97;;;10.10;99.90;;;;;;5420003;26;20266;-64
2024/04/17 06:43:52;;;;;;;7.17;5.83;;;10.10;99.90;;;;;;5422988;26;20586;-63
2024/04/17 06:46:17;;;;;;;8.10;6.10;;;10.00;99.90;;;;;;5426475;26;20703;-64
2024/04/17 06:48:46;;;;;;;8.27;6.20;;;10.00;99.90;;;;;;5424335;26;20234;-65
2024/04/17 06:51:14;;;;;;;4.80;4.40;;;9.90;99.90;;;;;;5419801;26;20277;-62
2024/04/17 06:53:42;;;;;;;5.63;5.13;;;10.00;99.90;;;;;;5420331;26;20236;-63
2024/04/17 06:56:08;;;;;;;4.47;4.07;;;9.90;99.90;;;;;;5425954;26;20499;-63
2024/04/17 06:58:36;;;;;;;5.60;5.10;;;9.70;99.90;;;;;;5425762;26;20241;-65
2024/04/17 07:01:02;;;;;;;6.40;5.80;;;9.50;99.90;;;;;;5418860;26;20274;-62
2024/04/17 07:03:30;;;;;;;5.77;5.00;;;9.60;99.90;;;;;;5419635;26;20238;-62
2024/04/17 07:06:00;;;;;;;5.27;4.73;;;9.80;99.90;;;;;;5424200;26;20231;-63
2024/04/17 07:08:31;;;;;;;6.97;5.20;;;10.10;99.90;;;;;;5425817;26;20234;-63
2024/04/17 07:10:57;;;;;;;6.57;5.33;;;10.20;99.90;;;;;;5421003;26;20254;-64
2024/04/17 07:13:25;;;;;;;5.83;5.33;;;10.50;99.90;;;;;;5419038;26;20235;-64
2024/04/17 07:15:55;;;;;;;5.00;4.50;;;10.70;99.90;;;;;;5422998;26;20231;-65
2024/04/17 07:18:24;;;;;;;4.93;4.43;;;10.90;99.90;;;;;;5425622;26;20234;-66
2024/04/17 07:20:49;;;;;;;5.17;4.57;;;11.00;99.90;;;;;;5422351;26;20230;-64
2024/04/17 07:23:18;;;;;;;4.80;4.40;;;11.00;99.90;;;;;;5419470;26;20274;-64
2024/04/17 07:25:47;;;;;;;4.77;4.37;;;11.10;99.90;;;;;;5422623;26;20729;-65
2024/04/17 07:28:15;;;;;;;4.30;3.90;;;11.00;99.90;;;;;;5428657;26;20238;-65
2024/04/17 07:30:41;;;;;;;4.13;3.73;;;10.80;99.90;;;;;;5428789;26;20855;-66
2024/04/17 07:33:10;;;;;;;4.93;3.90;;;10.50;99.90;;;;;;5422828;26;20239;-63
2024/04/17 07:35:35;;;;;;;11.03;8.50;;;10.40;99.90;;;;;;5422622;26;20235;-64
2024/04/17 07:38:04;;;;;;;3.67;3.30;;;10.60;99.90;;;;;;5428216;26;20238;-63
2024/04/17 07:40:30;;;;;;;3.93;3.53;;;10.80;99.90;;;;;;5428549;26;20749;-64
2024/04/17 07:43:00;;;;;;;3.37;3.07;;;11.00;99.90;;;;;;5424699;26;20234;-64
2024/04/17 07:45:26;;;;;;;2.90;2.70;;;11.00;99.90;;;;;;5422579;26;20231;-64
2024/04/17 07:47:55;;;;;;;2.90;2.63;;;10.90;99.90;;;;;;5425576;26;20304;-64
2024/04/17 07:50:20;;;;;;;3.17;2.87;;;10.90;99.90;;;;;;5428405;26;20715;-64
2024/04/17 07:52:49;;;;;;;3.10;2.80;;;11.00;99.90;;;;;;5426945;26;20272;-65
2024/04/17 07:55:15;;;;;;;2.80;2.60;;;11.10;99.90;;;;;;5422557;26;20277;-64
2024/04/17 07:57:43;;;;;;;3.10;2.80;;;11.20;99.90;;;;;;5422493;26;20280;-64
2024/04/17 08:00:12;;;;;;;3.50;3.20;;;11.20;99.90;;;;;;5428257;26;20271;-64
2024/04/17 08:02:45;;;;;;;3.53;3.00;;;11.20;99.90;;;;;;5428782;26;20269;-63
2024/04/17 08:05:11;;;;;;;3.33;3.00;;;11.40;99.90;;;;;;5422972;26;20311;-64
2024/04/17 08:07:40;;;;;;;3.70;3.13;;;11.60;99.90;;;;;;5422333;26;20295;-64
2024/04/17 08:10:06;;;;;;;3.70;3.27;;;11.60;99.90;;;;;;5421844;26;20239;-65
2024/04/17 08:12:36;;;;;;;3.70;3.40;;;11.70;99.90;;;;;;5422261;26;20335;-64
2024/04/17 08:15:02;;;;;;;4.63;3.77;;;11.90;99.90;;;;;;5427653;26;20230;-64
2024/04/17 08:17:33;;;;;;;3.73;3.43;;;12.10;99.90;;;;;;5428267;26;20610;-64
2024/04/17 08:19:58;;;;;;;6.27;4.10;;;12.20;99.90;;;;;;5423096;26;20769;-63
2024/04/17 08:22:27;;;;;;;4.40;4.00;;;12.30;99.90;;;;;;5422159;26;20239;-63
2024/04/17 08:24:53;;;;;;;4.80;4.30;;;12.10;99.90;;;;;;5425154;26;20844;-63
2024/04/17 08:27:21;;;;;;;5.80;5.20;;;12.20;99.90;;;;;;5428147;26;20234;-63
2024/04/17 08:29:47;;;;;;;4.70;4.30;;;12.70;99.90;;;;;;5426289;26;20587;-64
2024/04/17 08:32:15;;;;;;;5.30;4.03;;;13.20;99.90;;;;;;5422032;26;20271;-63
2024/04/17 08:34:43;;;;;;;5.07;4.57;;;13.50;99.90;;;;;;5422032;26;20343;-61
2024/04/17 08:37:12;;;;;;;4.27;3.63;;;13.70;99.90;;;;;;5426322;26;20587;-64
2024/04/17 08:39:37;;;;;;;7.57;6.07;;;13.90;99.90;;;;;;5428104;26;20345;-62
2024/04/17 08:42:08;;;;;;;3.80;3.40;;;14.00;99.90;;;;;;5422487;26;20240;-64
2024/04/17 08:44:34;;;;;;;5.97;4.37;;;13.90;99.90;;;;;;5422262;26;20236;-62
2024/04/17 08:47:04;;;;;;;3.87;3.50;;;13.40;99.90;;;;;;5426775;26;20231;-63
2024/04/17 08:49:33;;;;;;;4.93;4.20;;;13.20;99.90;;;;;;5428435;26;20284;-62
2024/04/17 08:52:05;;;;;;;4.70;3.60;;;13.10;99.90;;;;;;5423337;26;20230;-63
2024/04/17 08:54:32;;;;;;;4.40;4.00;;;13.10;99.90;;;;;;5421718;26;20231;-63
2024/04/17 08:57:00;;;;;;;5.63;4.00;;;13.40;99.90;;;;;;5425328;26;20291;-64
2024/04/17 08:59:26;;;;;;;4.47;4.07;;;13.60;99.90;;;;;;5427668;26;20285;-64
2024/04/17 09:01:55;;;;;;;5.87;4.40;;;13.70;99.90;;;;;;5424426;26;20234;-64
2024/04/17 09:04:21;;;;;;;5.70;4.13;;;13.80;99.90;;;;;;5421574;26;20630;-64
2024/04/17 09:06:51;;;;;;;4.27;3.73;;;13.70;99.90;;;;;;5422897;26;20235;-63
2024/04/17 09:09:21;;;;;;;5.07;3.90;;;13.40;99.90;;;;;;5428350;26;20285;-64
2024/04/17 09:11:51;;;;;;;5.83;3.80;;;13.00;99.90;;;;;;5426468;26;20238;-62
2024/04/17 09:14:19;;;;;;;5.80;5.13;;;12.60;99.90;;;;;;5421825;26;20307;-64
2024/04/17 09:16:48;;;;;;;5.23;3.40;;;12.10;99.90;;;;;;5422620;26;20243;-63
2024/04/17 09:19:13;;;;;;;2.37;2.13;;;11.60;99.90;;;;;;5428224;26;20306;-66
2024/04/17 09:21:42;;;;;;;2.93;2.23;;;10.90;99.90;;;;;;5427588;26;20246;-64
2024/04/17 09:24:08;;;;;;;2.97;2.50;;;10.50;99.90;;;;;;5421401;26;20697;-64
2024/04/17 09:26:39;;;;;;;2.73;2.47;;;10.40;99.90;;;;;;5421634;26;20289;-64
2024/04/17 09:29:05;;;;;;;3.57;2.50;;;10.40;99.90;;;;;;5427047;26;20289;-64
2024/04/17 09:31:33;;;;;;;4.93;3.00;;;10.40;99.90;;;;;;5427111;26;20234;-65
2024/04/17 09:34:00;;;;;;;4.20;2.60;;;10.50;99.90;;;;;;5423277;26;20272;-65
2024/04/17 09:36:29;;;;;;;3.43;2.87;;;10.70;99.90;;;;;;5421047;26;20265;-65
2024/04/17 09:38:55;;;;;;;3.73;2.77;;;10.70;99.90;;;;;;5424261;26;20661;-64
2024/04/17 09:41:23;;;;;;;3.37;2.77;;;10.90;99.90;;;;;;5427408;26;20303;-64
2024/04/17 09:43:55;;;;;;;4.00;2.53;;;11.10;99.90;;;;;;5425757;26;20782;-65
2024/04/17 09:46:24;;;;;;;3.93;3.10;;;11.30;99.90;;;;;;5422165;26;20276;-64
2024/04/17 09:48:53;;;;;;;3.00;2.70;;;11.40;99.90;;;;;;5422833;26;20721;-64
2024/04/17 09:51:23;;;;;;;3.90;2.83;;;11.40;99.90;;;;;;5426953;26;20285;-64
2024/04/17 09:53:54;;;;;;;2.30;2.10;;;11.50;99.90;;;;;;5425547;26;20276;-64
2024/04/17 09:56:23;;;;;;;3.77;2.40;;;11.40;99.90;;;;;;5421264;26;20231;-64
2024/04/17 09:58:53;;;;;;;3.93;2.40;;;11.40;99.90;;;;;;5422090;26;20278;-64
2024/04/17 10:01:24;;;;;;;3.77;2.90;;;11.40;99.90;;;;;;5426894;26;20242;-65
2024/04/17 10:03:50;;;;;;;3.20;2.90;;;11.30;99.90;;;;;;5425506;26;20607;-64
2024/04/17 10:06:19;;;;;;;3.47;2.93;;;11.30;99.90;;;;;;5421167;26;20235;-64
2024/04/17 10:08:45;;;;;;;3.67;2.60;;;11.30;99.90;;;;;;5420813;26;20281;-65
2024/04/17 10:11:14;;;;;;;3.00;2.63;;;11.40;99.90;;;;;;5426366;26;20558;-64
2024/04/17 10:13:41;;;;;;;5.37;2.93;;;11.40;99.90;;;;;;5426962;26;20261;-65
2024/04/17 10:16:14;;;;;;;5.53;3.13;;;11.50;99.90;;;;;;5420826;26;20239;-64
2024/04/17 10:18:45;;;;;;;3.20;2.50;;;11.40;99.90;;;;;;5420537;26;20304;-63
2024/04/17 10:21:20;;;;;;;2.63;1.87;;;11.20;99.90;;;;;;5426472;26;20281;-67
2024/04/17 10:23:56;;;;;;;3.17;1.60;;;10.20;99.90;;;;;;5427402;26;20276;-64
2024/04/17 10:26:24;;;;;;;2.10;1.80;;;8.90;99.90;;;;;;5421730;26;20243;-65
2024/04/17 10:28:51;;;;;;;4.37;2.10;;;8.20;99.90;;;;;;5421891;26;20243;-66
2024/04/17 10:31:22;;;;;;;4.73;2.37;;;7.80;99.90;;;;;;5425755;26;20226;-64
2024/04/17 10:33:48;;;;;;;3.03;2.40;;;7.80;99.90;;;;;;5425335;26;20233;-66
2024/04/17 10:36:16;;;;;;;4.20;2.10;;;7.80;99.90;;;;;;5420275;26;20239;-65
2024/04/17 10:38:42;;;;;;;3.30;2.07;;;7.90;99.90;;;;;;5420301;26;20236;-66
2024/04/17 10:41:14;;;;;;;2.50;2.30;;;7.90;99.90;;;;;;5425871;26;20293;-65
2024/04/17 10:43:40;;;;;;;3.40;2.67;;;8.00;99.90;;;;;;5425641;26;20272;-66
2024/04/17 10:46:10;;;;;;;7.73;4.57;;;8.30;99.90;;;;;;5420643;26;20704;-66
2024/04/17 10:48:45;;;;;;;4.53;3.10;;;8.80;99.90;;;;;;5419672;26;20239;-66
2024/04/17 10:51:15;;;;;;;3.43;2.70;;;9.40;99.90;;;;;;5419339;26;20251;-64
2024/04/17 10:53:43;;;;;;;3.23;2.57;;;9.90;99.90;;;;;;5419928;26;20239;-64
2024/04/17 10:56:12;;;;;;;4.87;3.33;;;10.40;99.90;;;;;;5425687;26;20751;-64
2024/04/17 10:58:38;;;;;;;4.47;2.93;;;10.90;99.90;;;;;;5425866;26;20230;-64
2024/04/17 11:01:07;;;;;;;5.67;2.83;;;11.60;99.90;;;;;;5419840;26;20234;-64
2024/04/17 11:03:33;;;;;;;3.93;2.50;;;12.30;99.90;;;;;;5419918;26;20278;-64
2024/04/17 11:06:04;;;;;;;3.60;2.20;;;13.00;99.90;;;;;;5422943;26;20235;-65
2024/04/17 11:08:29;;;;;;;4.63;2.67;;;13.60;99.90;;;;;;5426027;26;20712;-62
2024/04/17 11:10:58;;;;;;;9.17;2.90;;;14.00;99.90;;;;;;5422427;26;20306;-62
2024/04/17 11:13:24;;;;;;;4.67;2.83;;;14.30;99.90;;;;;;5419778;26;20626;-63
2024/04/17 11:15:52;;;;;;;4.57;2.47;;;14.60;99.90;;;;;;5420722;26;20234;-64
2024/04/17 11:18:18;;;;;;;4.93;3.10;;;14.70;99.90;;;;;;5425773;26;20234;-66
2024/04/17 11:20:47;;;;;;;5.47;3.00;;;14.50;99.90;;;;;;5425756;26;20601;-67
2024/04/17 11:23:15;;;;;;;4.53;2.40;;;14.20;99.90;;;;;;5418546;26;20277;-63
2024/04/17 11:25:44;;;;;;;5.87;3.10;;;14.10;99.90;;;;;;5419086;26;20231;-62
2024/04/17 11:28:12;;;;;;;3.43;2.50;;;14.10;99.90;;;;;;5424932;26;20238;-63
2024/04/17 11:30:47;;;;;;;9.17;2.83;;;14.10;99.90;;;;;;5425131;26;20325;-65
2024/04/17 11:33:13;;;;;;;2.73;2.27;;;14.10;99.90;;;;;;5425819;26;20230;-64
2024/04/17 11:35:42;;;;;;;7.57;2.83;;;13.60;99.90;;;;;;5425166;26;20230;-65
2024/04/17 11:38:08;;;;;;;4.43;3.10;;;13.10;99.90;;;;;;5419814;26;20235;-63
2024/04/17 11:40:39;;;;;;;5.43;3.20;;;12.40;99.90;;;;;;5418764;26;20242;-65
2024/04/17 11:43:13;;;;;;;11.53;5.00;;;12.00;99.90;;;;;;5423505;26;20285;-67
2024/04/17 11:45:41;;;;;;;8.10;4.33;;;11.60;99.90;;;;;;5425695;26;20235;-61
2024/04/17 11:48:07;;;;;;;6.40;3.13;;;11.60;99.90;;;;;;5419789;26;20247;-61
2024/04/17 11:50:36;;;;;;;4.30;3.27;;;11.60;99.90;;;;;;5418423;26;20282;-62
2024/04/17 11:53:02;;;;;;;5.33;3.07;;;11.50;99.90;;;;;;5421936;26;20713;-62
2024/04/17 11:55:30;;;;;;;5.03;3.33;;;11.60;99.90;;;;;;5425161;26;20242;-61
2024/04/17 11:57:58;;;;;;;5.73;3.23;;;11.90;99.90;;;;;;5430859;26;20230;-65
2024/04/17 12:00:27;;;;;;;10.83;5.07;;;12.40;99.90;;;;;;5417804;26;20328;-63
2024/04/17 12:02:53;;;;;;;4.87;2.97;;;12.90;99.90;;;;;;5419740;26;20234;-63
2024/04/17 12:05:21;;;;;;;3.57;2.70;;;13.00;99.90;;;;;;5424159;26;20234;-62
2024/04/17 12:07:47;;;;;;;4.20;2.97;;;12.80;99.90;;;;;;5424126;26;20299;-62
2024/04/17 12:10:17;;;;;;;4.43;2.73;;;12.90;99.90;;;;;;5424340;26;20333;-62
2024/04/17 12:12:42;;;;;;;6.23;2.90;;;13.20;99.90;;;;;;5442529;26;20230;-62
2024/04/17 12:15:14;;;;;;;7.17;2.63;;;13.70;99.90;;;;;;5428048;26;20265;-62
2024/04/17 12:17:39;;;;;;;6.00;2.23;;;13.80;99.90;;;;;;5442333;26;20257;-65
2024/04/17 12:20:10;;;;;;;4.47;2.17;;;13.90;99.90;;;;;;5442129;26;20234;-63
2024/04/17 12:22:36;;;;;;;5.57;2.80;;;14.20;99.90;;;;;;5442950;26;20239;-62
2024/04/17 12:27:49;;;;;;;6.17;2.30;;;14.60;99.90;;;;;;5445033;26;20770;-62
2024/04/17 12:30:19;;;;;;;5.37;3.03;;;14.70;99.90;;;;;;5442350;26;20230;-62
2024/04/17 12:32:48;;;;;;;3.67;2.27;;;14.70;99.90;;;;;;5442355;26;20234;-61
2024/04/17 12:35:16;;;;;;;5.23;2.00;;;14.70;99.90;;;;;;5442842;26;20230;-59
2024/04/17 12:37:45;;;;;;;4.13;1.97;;;15.00;99.90;;;;;;5428483;26;20261;-59
2024/04/17 12:40:13;;;;;;;3.07;1.90;;;15.10;99.90;;;;;;5422369;26;20335;-57
2024/04/17 12:42:39;;;;;;;5.63;2.50;;;15.20;99.90;;;;;;5422797;26;20731;-63
2024/04/17 12:45:08;;;;;;;16.30;5.53;;;15.20;99.90;;;;;;5422511;26;20227;-58
2024/04/17 12:47:39;;;;;;;5.47;2.20;;;15.10;99.90;;;;;;5422164;26;20525;-59
2024/04/17 12:50:09;;;;;;;6.30;2.50;;;15.30;99.90;;;;;;5425743;26;20231;-58
2024/04/17 12:52:38;;;;;;;4.00;1.80;;;15.50;99.90;;;;;;5427736;26;20593;-62
2024/04/17 12:55:07;;;;;;;3.77;2.07;;;15.60;99.90;;;;;;5424369;26;20230;-65
2024/04/17 12:57:36;;;;;;;2.87;1.70;;;15.70;99.90;;;;;;5422162;26;20239;-69